createdAt,value
2018-12-29T11:11:42.386Z,98783.80
2018-12-29T11:14:11.615Z,98784.80
2018-12-29T11:16:43.331Z,98783.10
2018-12-29T11:19:12.539Z,98777.48
2018-12-29T11:21:42.388Z,98779.36
2018-12-29T11:24:12.261Z,98768.95
2018-12-29T11:26:41.442Z,98757.55
2018-12-29T11:29:10.676Z,98753.28
2018-12-29T11:31:39.908Z,98734.38
2018-12-29T11:34:09.284Z,98734.38
2018-12-29T11:36:38.576Z,98720.06
2018-12-29T11:39:08.009Z,98711.38
2018-12-29T11:41:37.441Z,98706.08
2018-12-29T11:44:07.028Z,98691.95
2018-12-29T11:46:37.076Z,98692.81
2018-12-29T11:49:06.650Z,98692.81
2018-12-29T11:51:36.581Z,98703.55
2018-12-29T11:54:05.999Z,98704.90
2018-12-29T11:56:35.535Z,98717.48
2018-12-29T11:59:04.746Z,98717.48
2018-12-29T12:01:34.289Z,98713.58
2018-12-29T12:04:03.609Z,98713.58
2018-12-29T12:09:20.213Z,98722.45
2018-12-29T12:11:49.393Z,98722.45
2018-12-29T12:14:19.186Z,98716.29
2018-12-29T12:16:48.577Z,98716.29
2018-12-29T12:19:17.756Z,98700.64
2018-12-29T12:21:47.008Z,98693.98
2018-12-29T12:24:16.679Z,98680.89
2018-12-29T12:26:46.031Z,98680.89
2018-12-29T12:29:15.823Z,98678.84
2018-12-29T12:31:45.749Z,98681.91
2018-12-29T12:34:16.838Z,98681.91
2018-12-29T12:36:46.196Z,98701.66
2018-12-29T12:39:15.522Z,98719.38
2018-12-29T12:41:44.768Z,98703.86
2018-12-29T12:44:14.177Z,98679.86
2018-12-29T12:46:45.074Z,98680.03
2018-12-29T12:49:14.841Z,98679.53
2018-12-29T12:51:44.134Z,98679.02
2018-12-29T12:54:13.735Z,98673.22
2018-12-29T12:56:43.091Z,98675.77
2018-12-29T12:59:12.581Z,98674.76
2018-12-29T13:01:41.751Z,98674.76
2018-12-29T13:04:10.947Z,98665.38
2018-12-29T13:06:40.182Z,98611.75
2018-12-29T13:09:09.662Z,98611.75
2018-12-29T13:11:38.867Z,98638.32
2018-12-29T13:14:08.092Z,98629.58
2018-12-29T13:16:37.584Z,98629.58
2018-12-29T13:19:07.012Z,98640.87
2018-12-29T13:21:36.503Z,98640.87
2018-12-29T13:24:05.817Z,98650.87
2018-12-29T13:26:35.025Z,98636.59
2018-12-29T13:29:04.376Z,98621.23
2018-12-29T13:31:33.647Z,98621.23
2018-12-29T17:54:44.890Z,98453.27
2018-12-29T17:57:14.283Z,98459.88
2018-12-29T17:59:43.650Z,98456.36
2018-12-29T18:02:15.452Z,98460.27
2018-12-29T18:04:45.125Z,98449.33
2018-12-29T18:07:14.734Z,98446.52
2018-12-29T18:09:44.528Z,98446.52
2018-12-29T18:12:14.276Z,98440.13
2018-12-29T18:14:44.227Z,98450.11
2018-12-29T18:17:15.042Z,98450.11
2018-12-29T18:19:45.641Z,98420.75
2018-12-29T18:22:15.416Z,98436.61
2018-12-29T18:24:44.609Z,98431.69
2018-12-29T18:27:14.192Z,98434.62
2018-12-29T18:29:43.982Z,98421.64
2018-12-29T18:32:15.850Z,98421.64
2018-12-29T18:34:45.496Z,98425.64
2018-12-29T18:37:15.037Z,98425.64
2018-12-29T18:39:45.935Z,98420.13
2018-12-29T18:42:15.613Z,98411.08
2018-12-29T18:44:47.910Z,98423.23
2018-12-29T18:47:18.766Z,98423.23
2018-12-29T18:49:48.244Z,98434.41
2018-12-29T18:52:18.016Z,98426.78
2018-12-29T18:54:48.118Z,98426.78
2018-12-29T18:57:17.694Z,98422.44
2018-12-29T18:59:46.918Z,98424.95
2018-12-29T19:02:16.184Z,98429.05
2018-12-29T19:04:48.083Z,98429.05
2018-12-29T19:07:18.718Z,98418.18
2018-12-29T19:09:48.037Z,98415.98
2018-12-29T19:12:17.347Z,98409.86
2018-12-29T19:14:46.625Z,98409.86
2018-12-29T19:17:16.590Z,98417.31
2018-12-29T19:19:46.674Z,98409.15
2018-12-29T19:22:16.391Z,98419.64
2018-12-29T19:24:46.219Z,98421.95
2018-12-29T19:27:15.712Z,98413.97
2018-12-29T19:29:46.048Z,98413.97
2018-12-29T19:32:16.124Z,98423.70
2018-12-29T19:34:45.628Z,98437.49
2018-12-29T19:37:15.425Z,98437.49
2018-12-29T19:39:44.967Z,98429.83
2018-12-29T19:42:14.822Z,98429.83
2018-12-29T19:44:47.119Z,98430.19
2018-12-29T19:47:17.084Z,98430.19
2018-12-29T19:49:53.561Z,98428.42
2018-12-29T19:52:18.099Z,98419.19
2018-12-29T19:54:51.169Z,98421.10
2018-12-29T19:57:21.111Z,98421.10
2018-12-29T19:59:53.102Z,98404.62
2018-12-29T20:02:23.776Z,98402.11
2018-12-29T20:04:53.513Z,98391.54
2018-12-29T20:07:23.381Z,98391.54
2018-12-29T20:09:55.182Z,98393.96
2018-12-29T20:12:25.211Z,98395.02
2018-12-29T20:14:55.134Z,98395.02
2018-12-29T20:17:24.484Z,98395.08
2018-12-29T20:20:01.347Z,98397.31
2018-12-29T20:22:27.233Z,98397.31
2018-12-29T20:24:56.658Z,98384.36
2018-12-29T20:27:26.186Z,98389.30
2018-12-29T20:29:56.769Z,98382.67
2018-12-29T20:32:26.433Z,98393.01
2018-12-29T20:34:56.121Z,98393.01
2018-12-29T20:37:25.450Z,98385.35
2018-12-29T20:39:56.103Z,98394.14
2018-12-29T20:42:26.025Z,98394.14
2018-12-29T20:44:55.542Z,98390.06
2018-12-29T20:47:25.353Z,98403.36
2018-12-29T20:49:55.728Z,98381.30
2018-12-29T20:52:25.076Z,98381.04
2018-12-29T20:54:54.822Z,98402.52
2018-12-29T20:57:24.030Z,98402.52
2018-12-29T20:59:53.822Z,98387.48
2018-12-29T21:02:23.981Z,98387.48
2018-12-29T21:04:53.345Z,98385.76
2018-12-29T21:07:22.813Z,98393.22
2018-12-29T21:09:51.962Z,98392.00
2018-12-29T21:12:21.207Z,98392.00
2018-12-29T21:14:50.722Z,98389.61
2018-12-29T21:17:20.074Z,98390.01
2018-12-29T21:19:49.347Z,98395.06
2018-12-29T21:22:19.141Z,98395.06
2018-12-29T21:24:48.635Z,98408.28
2018-12-29T21:27:17.933Z,98401.20
2018-12-29T21:29:47.217Z,98420.41
2018-12-29T21:32:20.303Z,98419.54
2018-12-29T21:34:49.868Z,98419.54
2018-12-29T21:37:22.021Z,98407.84
2018-12-29T21:39:52.031Z,98408.66
2018-12-29T21:42:21.332Z,98402.20
2018-12-29T21:44:51.740Z,98402.20
2018-12-29T21:47:21.030Z,98444.53
2018-12-29T21:49:52.820Z,98436.91
2018-12-29T21:52:22.277Z,98436.91
2018-12-29T21:54:51.674Z,98419.80
2018-12-29T21:57:21.156Z,98430.80
2018-12-29T21:59:50.368Z,98436.11
2018-12-29T22:02:19.675Z,98436.11
2018-12-29T22:04:51.334Z,98433.50
2018-12-29T22:07:23.510Z,98426.95
2018-12-29T22:09:52.835Z,98441.02
2018-12-29T22:12:24.890Z,98441.02
2018-12-29T22:14:54.229Z,98449.65
2018-12-29T22:17:25.810Z,98449.65
2018-12-29T22:19:55.947Z,98441.76
2018-12-29T22:22:25.125Z,98441.76
2018-12-29T22:24:56.978Z,98455.11
2018-12-29T22:27:26.241Z,98459.73
2018-12-29T22:29:55.791Z,98459.14
2018-12-29T22:32:29.064Z,98456.09
2018-12-29T22:34:58.602Z,98462.44
2018-12-29T22:37:28.403Z,98462.44
2018-12-29T22:39:57.831Z,98476.45
2018-12-29T22:42:27.049Z,98476.45
2018-12-29T22:44:56.308Z,98466.91
2018-12-29T22:47:31.110Z,98480.84
2018-12-29T22:50:01.845Z,98490.75
2018-12-29T22:52:31.712Z,98490.75
2018-12-29T22:55:00.963Z,98479.78
2018-12-29T22:57:30.301Z,98479.78
2018-12-29T23:00:00.682Z,98464.16
2018-12-29T23:02:30.080Z,98468.51
2018-12-29T23:05:00.235Z,98468.51
2018-12-29T23:07:30.345Z,98482.13
2018-12-29T23:10:00.048Z,98471.72
2018-12-29T23:12:29.831Z,98471.72
2018-12-29T23:15:01.900Z,98478.33
2018-12-29T23:17:31.878Z,98493.95
2018-12-29T23:20:01.749Z,98493.33
2018-12-29T23:22:31.110Z,98494.66
2018-12-29T23:25:03.639Z,98490.70
2018-12-29T23:27:33.664Z,98490.70
2018-12-29T23:30:03.098Z,98497.52
2018-12-29T23:32:33.142Z,98503.83
2018-12-29T23:35:03.593Z,98497.67
2018-12-29T23:37:32.931Z,98494.02
2018-12-29T23:40:02.355Z,98499.39
2018-12-29T23:42:32.009Z,98497.78
2018-12-29T23:45:01.253Z,98480.56
2018-12-29T23:47:31.263Z,98513.28
2018-12-29T23:50:00.889Z,98519.94
2018-12-29T23:52:30.507Z,98519.94
2018-12-29T23:55:00.315Z,98510.73
2018-12-29T23:57:32.352Z,98538.67
